sensor_id;sensor_type;location;lat;lon;timestamp;temperature;humidity
9849;DHT22;4963;51.444;6.528;2023-09-30T00:01:26;15.30;99.90
9849;DHT22;4963;51.444;6.528;2023-09-30T00:03:53;15.30;99.90
9849;DHT22;4963;51.444;6.528;2023-09-30T00:06:21;15.30;99.90
9849;DHT22;4963;51.444;6.528;2023-09-30T00:08:48;15.20;99.90
9849;DHT22;4963;51.444;6.528;2023-09-30T00:11:15;15.20;99.90
9849;DHT22;4963;51.444;6.528;2023-09-30T00:13:44;15.20;99.90
9849;DHT22;4963;51.444;6.528;2023-09-30T00:16:11;15.20;99.90
9849;DHT22;4963;51.444;6.528;2023-09-30T00:18:38;15.20;99.90
9849;DHT22;4963;51.444;6.528;2023-09-30T00:21:05;15.20;99.90
9849;DHT22;4963;51.444;6.528;2023-09-30T00:23:34;15.20;99.90
9849;DHT22;4963;51.444;6.528;2023-09-30T00:26:01;15.20;99.90
9849;DHT22;4963;51.444;6.528;2023-09-30T00:28:28;15.20;99.90
9849;DHT22;4963;51.444;6.528;2023-09-30T00:30:55;15.10;99.90
9849;DHT22;4963;51.444;6.528;2023-09-30T00:33:22;15.20;99.90
9849;DHT22;4963;51.444;6.528;2023-09-30T00:35:48;15.20;99.90
9849;DHT22;4963;51.444;6.528;2023-09-30T00:38:15;15.20;99.90
9849;DHT22;4963;51.444;6.528;2023-09-30T00:40:48;15.10;99.90
9849;DHT22;4963;51.444;6.528;2023-09-30T00:43:18;15.10;99.90
9849;DHT22;4963;51.444;6.528;2023-09-30T00:45:46;15.20;99.90
9849;DHT22;4963;51.444;6.528;2023-09-30T00:48:13;15.20;99.90
9849;DHT22;4963;51.444;6.528;2023-09-30T00:50:40;15.20;99.90
9849;DHT22;4963;51.444;6.528;2023-09-30T00:53:07;15.10;99.90
9849;DHT22;4963;51.444;6.528;2023-09-30T00:55:36;15.10;99.90
9849;DHT22;4963;51.444;6.528;2023-09-30T00:58:04;15.10;99.90
9849;DHT22;4963;51.444;6.528;2023-09-30T01:00:31;15.10;99.90
9849;DHT22;4963;51.444;6.528;2023-09-30T01:02:59;15.10;99.90
9849;DHT22;4963;51.444;6.528;2023-09-30T01:05:29;15.10;99.90
9849;DHT22;4963;51.444;6.528;2023-09-30T01:07:56;15.10;99.90
9849;DHT22;4963;51.444;6.528;2023-09-30T01:10:23;15.00;99.90
9849;DHT22;4963;51.444;6.528;2023-09-30T01:12:50;15.00;99.90
9849;DHT22;4963;51.444;6.528;2023-09-30T01:15:19;15.00;99.90
9849;DHT22;4963;51.444;6.528;2023-09-30T01:17:46;15.10;99.90
9849;DHT22;4963;51.444;6.528;2023-09-30T01:20:15;15.10;99.90
9849;DHT22;4963;51.444;6.528;2023-09-30T01:22:46;15.10;99.90
9849;DHT22;4963;51.444;6.528;2023-09-30T01:25:13;15.10;99.90
9849;DHT22;4963;51.444;6.528;2023-09-30T01:27:40;15.10;99.90
9849;DHT22;4963;51.444;6.528;2023-09-30T01:30:07;15.10;99.90
9849;DHT22;4963;51.444;6.528;2023-09-30T01:32:36;14.90;99.90
9849;DHT22;4963;51.444;6.528;2023-09-30T01:35:04;14.90;99.90
9849;DHT22;4963;51.444;6.528;2023-09-30T01:37:31;14.90;99.90
9849;DHT22;4963;51.444;6.528;2023-09-30T01:39:59;14.90;99.90
9849;DHT22;4963;51.444;6.528;2023-09-30T01:42:26;14.90;99.90
9849;DHT22;4963;51.444;6.528;2023-09-30T01:44:53;14.90;99.90
9849;DHT22;4963;51.444;6.528;2023-09-30T01:47:20;14.90;99.90
9849;DHT22;4963;51.444;6.528;2023-09-30T01:49:47;14.90;99.90
9849;DHT22;4963;51.444;6.528;2023-09-30T01:52:13;14.90;99.90
9849;DHT22;4963;51.444;6.528;2023-09-30T01:54:40;15.00;99.90
9849;DHT22;4963;51.444;6.528;2023-09-30T01:57:08;15.00;99.90
9849;DHT22;4963;51.444;6.528;2023-09-30T01:59:35;15.00;99.90
9849;DHT22;4963;51.444;6.528;2023-09-30T02:02:02;15.00;99.90
9849;DHT22;4963;51.444;6.528;2023-09-30T02:04:29;14.90;99.90
9849;DHT22;4963;51.444;6.528;2023-09-30T02:06:56;14.90;99.90
9849;DHT22;4963;51.444;6.528;2023-09-30T02:09:23;14.80;99.90
9849;DHT22;4963;51.444;6.528;2023-09-30T02:11:50;14.80;99.90
9849;DHT22;4963;51.444;6.528;2023-09-30T02:14:18;14.80;99.90
9849;DHT22;4963;51.444;6.528;2023-09-30T02:16:45;14.80;99.90
9849;DHT22;4963;51.444;6.528;2023-09-30T02:19:11;14.80;99.90
9849;DHT22;4963;51.444;6.528;2023-09-30T02:21:38;14.70;99.90
9849;DHT22;4963;51.444;6.528;2023-09-30T02:24:06;14.60;99.90
9849;DHT22;4963;51.444;6.528;2023-09-30T02:26:33;14.60;99.90
9849;DHT22;4963;51.444;6.528;2023-09-30T02:29:00;14.60;99.90
9849;DHT22;4963;51.444;6.528;2023-09-30T02:31:28;14.60;99.90
9849;DHT22;4963;51.444;6.528;2023-09-30T02:33:55;14.60;99.90
9849;DHT22;4963;51.444;6.528;2023-09-30T02:36:22;14.60;99.90
9849;DHT22;4963;51.444;6.528;2023-09-30T02:38:49;14.60;99.90
9849;DHT22;4963;51.444;6.528;2023-09-30T02:41:16;14.60;99.90
9849;DHT22;4963;51.444;6.528;2023-09-30T02:43:42;14.60;99.90
9849;DHT22;4963;51.444;6.528;2023-09-30T02:46:09;14.50;99.90
9849;DHT22;4963;51.444;6.528;2023-09-30T02:48:39;14.50;99.90
9849;DHT22;4963;51.444;6.528;2023-09-30T02:51:09;14.40;99.90
9849;DHT22;4963;51.444;6.528;2023-09-30T02:53:37;14.50;99.90
9849;DHT22;4963;51.444;6.528;2023-09-30T02:56:04;14.50;99.90
9849;DHT22;4963;51.444;6.528;2023-09-30T02:58:31;14.50;99.90
9849;DHT22;4963;51.444;6.528;2023-09-30T03:00:58;14.40;99.90
9849;DHT22;4963;51.444;6.528;2023-09-30T03:03:25;14.50;99.90
9849;DHT22;4963;51.444;6.528;2023-09-30T03:05:54;14.50;99.90
9849;DHT22;4963;51.444;6.528;2023-09-30T03:08:21;14.50;99.90
9849;DHT22;4963;51.444;6.528;2023-09-30T03:10:52;14.50;99.90
9849;DHT22;4963;51.444;6.528;2023-09-30T03:13:19;14.50;99.90
9849;DHT22;4963;51.444;6.528;2023-09-30T03:15:47;14.50;99.90
9849;DHT22;4963;51.444;6.528;2023-09-30T03:18:15;14.40;99.90
9849;DHT22;4963;51.444;6.528;2023-09-30T03:20:42;14.40;99.90
9849;DHT22;4963;51.444;6.528;2023-09-30T03:23:11;14.50;99.90
9849;DHT22;4963;51.444;6.528;2023-09-30T03:25:39;14.50;99.90
9849;DHT22;4963;51.444;6.528;2023-09-30T03:28:08;14.40;99.90
9849;DHT22;4963;51.444;6.528;2023-09-30T03:30:34;14.40;99.90
9849;DHT22;4963;51.444;6.528;2023-09-30T03:33:01;14.40;99.90
9849;DHT22;4963;51.444;6.528;2023-09-30T03:35:30;14.40;99.90
9849;DHT22;4963;51.444;6.528;2023-09-30T03:37:57;14.40;99.90
9849;DHT22;4963;51.444;6.528;2023-09-30T03:40:27;14.40;99.90
9849;DHT22;4963;51.444;6.528;2023-09-30T03:42:59;14.40;99.90
9849;DHT22;4963;51.444;6.528;2023-09-30T03:45:26;14.30;99.90
9849;DHT22;4963;51.444;6.528;2023-09-30T03:47:52;14.30;99.90
9849;DHT22;4963;51.444;6.528;2023-09-30T03:50:19;14.30;99.90
9849;DHT22;4963;51.444;6.528;2023-09-30T03:52:49;14.30;99.90
9849;DHT22;4963;51.444;6.528;2023-09-30T03:55:16;14.30;99.90
9849;DHT22;4963;51.444;6.528;2023-09-30T03:57:44;14.30;99.90
9849;DHT22;4963;51.444;6.528;2023-09-30T04:00:13;14.20;99.90
9849;DHT22;4963;51.444;6.528;2023-09-30T04:02:44;14.10;99.90
9849;DHT22;4963;51.444;6.528;2023-09-30T04:05:14;14.10;99.90
9849;DHT22;4963;51.444;6.528;2023-09-30T04:07:42;14.10;99.90
9849;DHT22;4963;51.444;6.528;2023-09-30T04:10:09;14.10;99.90
9849;DHT22;4963;51.444;6.528;2023-09-30T04:12:36;14.00;99.90
9849;DHT22;4963;51.444;6.528;2023-09-30T04:15:06;13.90;99.90
9849;DHT22;4963;51.444;6.528;2023-09-30T04:17:37;13.90;99.90
9849;DHT22;4963;51.444;6.528;2023-09-30T04:20:05;13.90;99.90
9849;DHT22;4963;51.444;6.528;2023-09-30T04:22:35;13.80;99.90
9849;DHT22;4963;51.444;6.528;2023-09-30T04:25:01;13.80;99.90
9849;DHT22;4963;51.444;6.528;2023-09-30T04:27:31;13.80;99.90
9849;DHT22;4963;51.444;6.528;2023-09-30T04:29:58;13.80;99.90
9849;DHT22;4963;51.444;6.528;2023-09-30T04:32:26;13.80;99.90
9849;DHT22;4963;51.444;6.528;2023-09-30T04:34:53;13.80;99.90
9849;DHT22;4963;51.444;6.528;2023-09-30T04:37:20;13.80;99.90
9849;DHT22;4963;51.444;6.528;2023-09-30T04:39:47;13.90;99.90
9849;DHT22;4963;51.444;6.528;2023-09-30T04:42:14;13.80;99.90
9849;DHT22;4963;51.444;6.528;2023-09-30T04:44:43;13.80;99.90
9849;DHT22;4963;51.444;6.528;2023-09-30T04:47:10;13.80;99.90
9849;DHT22;4963;51.444;6.528;2023-09-30T04:49:38;13.80;99.90
9849;DHT22;4963;51.444;6.528;2023-09-30T04:52:05;13.90;99.90
9849;DHT22;4963;51.444;6.528;2023-09-30T04:54:33;13.90;99.90
9849;DHT22;4963;51.444;6.528;2023-09-30T04:57:00;13.90;99.90
9849;DHT22;4963;51.444;6.528;2023-09-30T04:59:27;13.90;99.90
9849;DHT22;4963;51.444;6.528;2023-09-30T05:01:55;13.90;99.90
9849;DHT22;4963;51.444;6.528;2023-09-30T05:04:22;13.90;99.90
9849;DHT22;4963;51.444;6.528;2023-09-30T05:06:52;13.70;99.90
9849;DHT22;4963;51.444;6.528;2023-09-30T05:09:19;13.60;99.90
9849;DHT22;4963;51.444;6.528;2023-09-30T05:11:46;13.60;99.90
9849;DHT22;4963;51.444;6.528;2023-09-30T05:14:13;13.60;99.90
9849;DHT22;4963;51.444;6.528;2023-09-30T05:16:40;13.60;99.90
9849;DHT22;4963;51.444;6.528;2023-09-30T05:19:09;13.50;99.90
9849;DHT22;4963;51.444;6.528;2023-09-30T05:21:35;13.50;99.90
9849;DHT22;4963;51.444;6.528;2023-09-30T05:24:05;13.40;99.90
9849;DHT22;4963;51.444;6.528;2023-09-30T05:26:32;13.40;99.90
9849;DHT22;4963;51.444;6.528;2023-09-30T05:28:59;13.40;99.90
9849;DHT22;4963;51.444;6.528;2023-09-30T05:31:26;13.50;99.90
9849;DHT22;4963;51.444;6.528;2023-09-30T05:33:53;13.50;99.90
9849;DHT22;4963;51.444;6.528;2023-09-30T05:36:20;13.50;99.90
9849;DHT22;4963;51.444;6.528;2023-09-30T05:38:47;13.50;99.90
9849;DHT22;4963;51.444;6.528;2023-09-30T05:41:15;13.50;99.90
9849;DHT22;4963;51.444;6.528;2023-09-30T05:43:42;13.50;99.90
9849;DHT22;4963;51.444;6.528;2023-09-30T05:46:10;13.50;99.90
9849;DHT22;4963;51.444;6.528;2023-09-30T05:48:37;13.50;99.90
9849;DHT22;4963;51.444;6.528;2023-09-30T05:51:05;13.60;99.90
9849;DHT22;4963;51.444;6.528;2023-09-30T05:53:32;13.60;99.90
9849;DHT22;4963;51.444;6.528;2023-09-30T05:55:59;13.60;99.90
9849;DHT22;4963;51.444;6.528;2023-09-30T05:58:27;13.60;99.90
9849;DHT22;4963;51.444;6.528;2023-09-30T06:00:54;13.60;99.90
9849;DHT22;4963;51.444;6.528;2023-09-30T06:03:21;13.60;99.90
9849;DHT22;4963;51.444;6.528;2023-09-30T06:05:48;13.70;99.90
9849;DHT22;4963;51.444;6.528;2023-09-30T06:08:15;13.70;99.90
9849;DHT22;4963;51.444;6.528;2023-09-30T06:10:42;13.70;99.90
9849;DHT22;4963;51.444;6.528;2023-09-30T06:13:10;13.70;99.90
9849;DHT22;4963;51.444;6.528;2023-09-30T06:15:39;13.80;99.90
9849;DHT22;4963;51.444;6.528;2023-09-30T06:18:09;13.80;99.90
9849;DHT22;4963;51.444;6.528;2023-09-30T06:20:38;13.80;99.90
9849;DHT22;4963;51.444;6.528;2023-09-30T06:23:06;13.80;99.90
9849;DHT22;4963;51.444;6.528;2023-09-30T06:25:33;13.80;99.90
9849;DHT22;4963;51.444;6.528;2023-09-30T06:28:01;13.80;99.90
9849;DHT22;4963;51.444;6.528;2023-09-30T06:30:29;13.80;99.90
9849;DHT22;4963;51.444;6.528;2023-09-30T06:32:57;13.80;99.90
9849;DHT22;4963;51.444;6.528;2023-09-30T06:35:25;13.80;99.90
9849;DHT22;4963;51.444;6.528;2023-09-30T06:37:52;13.80;99.90
9849;DHT22;4963;51.444;6.528;2023-09-30T06:40:20;13.90;99.90
9849;DHT22;4963;51.444;6.528;2023-09-30T06:42:47;14.10;99.90
9849;DHT22;4963;51.444;6.528;2023-09-30T06:45:14;14.20;99.90
9849;DHT22;4963;51.444;6.528;2023-09-30T06:47:41;14.40;99.90
9849;DHT22;4963;51.444;6.528;2023-09-30T06:50:11;14.50;99.90
9849;DHT22;4963;51.444;6.528;2023-09-30T06:52:42;14.70;99.90
9849;DHT22;4963;51.444;6.528;2023-09-30T06:55:11;14.80;99.90
9849;DHT22;4963;51.444;6.528;2023-09-30T06:57:39;14.80;99.90
9849;DHT22;4963;51.444;6.528;2023-09-30T07:00:07;14.80;99.90
9849;DHT22;4963;51.444;6.528;2023-09-30T07:02:35;14.70;99.90
9849;DHT22;4963;51.444;6.528;2023-09-30T07:05:05;14.80;99.90
9849;DHT22;4963;51.444;6.528;2023-09-30T07:07:33;14.80;99.90
9849;DHT22;4963;51.444;6.528;2023-09-30T07:10:00;14.80;99.90
9849;DHT22;4963;51.444;6.528;2023-09-30T07:12:27;14.70;99.90
9849;DHT22;4963;51.444;6.528;2023-09-30T07:14:53;14.70;99.90
9849;DHT22;4963;51.444;6.528;2023-09-30T07:17:20;14.70;99.90
9849;DHT22;4963;51.444;6.528;2023-09-30T07:19:47;14.70;99.90
9849;DHT22;4963;51.444;6.528;2023-09-30T07:22:14;14.70;99.90
9849;DHT22;4963;51.444;6.528;2023-09-30T07:24:43;14.70;99.90
9849;DHT22;4963;51.444;6.528;2023-09-30T07:27:10;14.70;99.90
9849;DHT22;4963;51.444;6.528;2023-09-30T07:29:40;14.50;99.90
9849;DHT22;4963;51.444;6.528;2023-09-30T07:32:07;14.40;99.90
9849;DHT22;4963;51.444;6.528;2023-09-30T07:34:34;14.40;99.90
9849;DHT22;4963;51.444;6.528;2023-09-30T07:37:01;14.40;99.90
9849;DHT22;4963;51.444;6.528;2023-09-30T07:39:29;14.50;99.90
9849;DHT22;4963;51.444;6.528;2023-09-30T07:41:58;14.60;99.90
9849;DHT22;4963;51.444;6.528;2023-09-30T07:44:26;14.70;99.90
9849;DHT22;4963;51.444;6.528;2023-09-30T07:46:55;14.70;99.90
9849;DHT22;4963;51.444;6.528;2023-09-30T07:49:22;14.90;99.90
9849;DHT22;4963;51.444;6.528;2023-09-30T07:51:50;14.90;99.90
9849;DHT22;4963;51.444;6.528;2023-09-30T07:54:19;15.00;99.90
9849;DHT22;4963;51.444;6.528;2023-09-30T07:56:46;15.00;99.90
9849;DHT22;4963;51.444;6.528;2023-09-30T07:59:15;15.00;99.90
9849;DHT22;4963;51.444;6.528;2023-09-30T08:01:47;15.10;99.90
9849;DHT22;4963;51.444;6.528;2023-09-30T08:04:14;15.20;99.90
9849;DHT22;4963;51.444;6.528;2023-09-30T08:06:41;15.20;99.90
9849;DHT22;4963;51.444;6.528;2023-09-30T08:09:08;15.40;99.90
9849;DHT22;4963;51.444;6.528;2023-09-30T08:11:38;15.60;99.90
9849;DHT22;4963;51.444;6.528;2023-09-30T08:14:09;15.90;99.90
9849;DHT22;4963;51.444;6.528;2023-09-30T08:16:38;16.20;99.90
9849;DHT22;4963;51.444;6.528;2023-09-30T08:19:06;16.60;99.90
9849;DHT22;4963;51.444;6.528;2023-09-30T08:21:34;16.90;99.90
9849;DHT22;4963;51.444;6.528;2023-09-30T08:24:02;17.30;99.90
9849;DHT22;4963;51.444;6.528;2023-09-30T08:26:29;17.70;99.90
9849;DHT22;4963;51.444;6.528;2023-09-30T08:28:58;18.10;99.90
9849;DHT22;4963;51.444;6.528;2023-09-30T08:31:25;18.40;99.90
9849;DHT22;4963;51.444;6.528;2023-09-30T08:33:54;18.60;99.90
9849;DHT22;4963;51.444;6.528;2023-09-30T08:36:21;18.70;99.90
9849;DHT22;4963;51.444;6.528;2023-09-30T08:38:48;18.60;99.90
9849;DHT22;4963;51.444;6.528;2023-09-30T08:41:25;18.40;99.90
9849;DHT22;4963;51.444;6.528;2023-09-30T08:44:00;18.30;99.90
9849;DHT22;4963;51.444;6.528;2023-09-30T08:46:29;18.10;99.90
9849;DHT22;4963;51.444;6.528;2023-09-30T08:49:01;17.80;99.90
9849;DHT22;4963;51.444;6.528;2023-09-30T08:51:29;17.60;99.90
9849;DHT22;4963;51.444;6.528;2023-09-30T08:53:56;17.50;99.90
9849;DHT22;4963;51.444;6.528;2023-09-30T08:56:26;17.40;99.90
9849;DHT22;4963;51.444;6.528;2023-09-30T08:58:56;17.30;99.90
9849;DHT22;4963;51.444;6.528;2023-09-30T09:01:24;17.10;99.90
9849;DHT22;4963;51.444;6.528;2023-09-30T09:03:51;17.10;99.90
9849;DHT22;4963;51.444;6.528;2023-09-30T09:06:20;17.10;99.90
9849;DHT22;4963;51.444;6.528;2023-09-30T09:08:48;17.10;99.90
9849;DHT22;4963;51.444;6.528;2023-09-30T09:11:15;17.20;99.90
9849;DHT22;4963;51.444;6.528;2023-09-30T09:13:47;17.10;99.90
9849;DHT22;4963;51.444;6.528;2023-09-30T09:16:15;17.10;99.90
9849;DHT22;4963;51.444;6.528;2023-09-30T09:18:43;17.10;99.90
9849;DHT22;4963;51.444;6.528;2023-09-30T09:21:11;17.20;99.90
9849;DHT22;4963;51.444;6.528;2023-09-30T09:23:44;17.20;99.90
9849;DHT22;4963;51.444;6.528;2023-09-30T09:26:23;17.30;99.90
9849;DHT22;4963;51.444;6.528;2023-09-30T09:28:51;17.30;99.90
9849;DHT22;4963;51.444;6.528;2023-09-30T09:31:26;17.30;99.90
9849;DHT22;4963;51.444;6.528;2023-09-30T09:33:54;17.30;99.90
9849;DHT22;4963;51.444;6.528;2023-09-30T09:36:38;17.30;99.90
9849;DHT22;4963;51.444;6.528;2023-09-30T09:39:07;17.30;99.90
9849;DHT22;4963;51.444;6.528;2023-09-30T09:41:49;17.30;99.90
9849;DHT22;4963;51.444;6.528;2023-09-30T09:44:17;17.30;99.90
9849;DHT22;4963;51.444;6.528;2023-09-30T09:46:46;17.30;99.90
9849;DHT22;4963;51.444;6.528;2023-09-30T09:49:16;17.20;99.90
9849;DHT22;4963;51.444;6.528;2023-09-30T09:51:46;17.20;99.90
9849;DHT22;4963;51.444;6.528;2023-09-30T09:54:16;17.20;99.90
9849;DHT22;4963;51.444;6.528;2023-09-30T09:56:44;17.40;99.90
9849;DHT22;4963;51.444;6.528;2023-09-30T09:59:12;17.50;99.90
9849;DHT22;4963;51.444;6.528;2023-09-30T10:01:40;17.50;99.90
9849;DHT22;4963;51.444;6.528;2023-09-30T10:04:07;17.60;99.90
9849;DHT22;4963;51.444;6.528;2023-09-30T10:06:37;17.60;99.90
9849;DHT22;4963;51.444;6.528;2023-09-30T10:09:09;17.70;99.90
9849;DHT22;4963;51.444;6.528;2023-09-30T10:11:38;17.70;99.90
9849;DHT22;4963;51.444;6.528;2023-09-30T10:14:08;17.80;99.90
9849;DHT22;4963;51.444;6.528;2023-09-30T10:16:50;17.80;99.90
9849;DHT22;4963;51.444;6.528;2023-09-30T10:19:19;17.90;99.90
9849;DHT22;4963;51.444;6.528;2023-09-30T10:22:20;17.90;99.90
9849;DHT22;4963;51.444;6.528;2023-09-30T10:24:49;17.90;99.90
9849;DHT22;4963;51.444;6.528;2023-09-30T10:27:36;17.90;99.90
9849;DHT22;4963;51.444;6.528;2023-09-30T10:30:10;17.90;99.90
9849;DHT22;4963;51.444;6.528;2023-09-30T10:33:08;17.90;99.90
9849;DHT22;4963;51.444;6.528;2023-09-30T10:35:47;17.90;99.90
9849;DHT22;4963;51.444;6.528;2023-09-30T10:38:39;17.90;99.90
9849;DHT22;4963;51.444;6.528;2023-09-30T10:41:09;17.90;99.90
9849;DHT22;4963;51.444;6.528;2023-09-30T10:43:40;17.90;99.90
9849;DHT22;4963;51.444;6.528;2023-09-30T10:46:31;17.90;99.90
9849;DHT22;4963;51.444;6.528;2023-09-30T10:49:31;17.90;99.90
9849;DHT22;4963;51.444;6.528;2023-09-30T10:52:04;17.90;99.90
9849;DHT22;4963;51.444;6.528;2023-09-30T10:54:32;17.90;99.90
9849;DHT22;4963;51.444;6.528;2023-09-30T10:57:00;17.80;99.90
9849;DHT22;4963;51.444;6.528;2023-09-30T10:59:31;17.80;99.90
9849;DHT22;4963;51.444;6.528;2023-09-30T11:02:00;17.80;99.90
9849;DHT22;4963;51.444;6.528;2023-09-30T11:04:27;17.70;99.90
9849;DHT22;4963;51.444;6.528;2023-09-30T11:06:54;17.80;99.90
9849;DHT22;4963;51.444;6.528;2023-09-30T11:09:22;17.80;99.90
9849;DHT22;4963;51.444;6.528;2023-09-30T11:11:51;17.70;99.90
9849;DHT22;4963;51.444;6.528;2023-09-30T11:14:21;17.70;99.90
9849;DHT22;4963;51.444;6.528;2023-09-30T11:16:50;17.70;99.90
9849;DHT22;4963;51.444;6.528;2023-09-30T11:19:18;17.70;99.90
9849;DHT22;4963;51.444;6.528;2023-09-30T11:21:47;17.60;99.90
9849;DHT22;4963;51.444;6.528;2023-09-30T11:24:15;17.60;99.90
9849;DHT22;4963;51.444;6.528;2023-09-30T11:26:43;17.50;99.90
9849;DHT22;4963;51.444;6.528;2023-09-30T11:29:11;17.50;99.90
9849;DHT22;4963;51.444;6.528;2023-09-30T11:31:39;17.60;99.90
9849;DHT22;4963;51.444;6.528;2023-09-30T11:34:08;17.70;99.90
9849;DHT22;4963;51.444;6.528;2023-09-30T11:36:36;17.70;99.90
9849;DHT22;4963;51.444;6.528;2023-09-30T11:39:03;17.80;99.90
9849;DHT22;4963;51.444;6.528;2023-09-30T11:41:34;17.80;99.90
9849;DHT22;4963;51.444;6.528;2023-09-30T11:44:05;17.80;99.90
9849;DHT22;4963;51.444;6.528;2023-09-30T11:46:46;17.80;99.90
9849;DHT22;4963;51.444;6.528;2023-09-30T11:49:28;17.80;99.90
9849;DHT22;4963;51.444;6.528;2023-09-30T11:51:55;17.80;99.90
9849;DHT22;4963;51.444;6.528;2023-09-30T11:54:29;17.80;99.90
9849;DHT22;4963;51.444;6.528;2023-09-30T11:56:56;17.80;99.90
9849;DHT22;4963;51.444;6.528;2023-09-30T11:59:24;17.80;99.90
9849;DHT22;4963;51.444;6.528;2023-09-30T12:01:51;17.80;99.90
9849;DHT22;4963;51.444;6.528;2023-09-30T12:04:20;17.80;99.90
9849;DHT22;4963;51.444;6.528;2023-09-30T12:06:49;17.90;99.90
9849;DHT22;4963;51.444;6.528;2023-09-30T12:09:17;17.90;99.90
9849;DHT22;4963;51.444;6.528;2023-09-30T12:11:48;17.90;99.90
9849;DHT22;4963;51.444;6.528;2023-09-30T12:14:16;18.00;99.90
9849;DHT22;4963;51.444;6.528;2023-09-30T12:16:43;18.00;99.90
9849;DHT22;4963;51.444;6.528;2023-09-30T12:19:11;18.00;99.90
9849;DHT22;4963;51.444;6.528;2023-09-30T12:21:40;18.10;99.90
9849;DHT22;4963;51.444;6.528;2023-09-30T12:24:07;18.10;99.90
9849;DHT22;4963;51.444;6.528;2023-09-30T12:26:37;18.20;99.90
9849;DHT22;4963;51.444;6.528;2023-09-30T12:29:07;18.20;99.90
9849;DHT22;4963;51.444;6.528;2023-09-30T12:31:35;18.20;99.90
9849;DHT22;4963;51.444;6.528;2023-09-30T12:34:02;18.30;99.90
9849;DHT22;4963;51.444;6.528;2023-09-30T12:36:29;18.40;99.90
9849;DHT22;4963;51.444;6.528;2023-09-30T12:38:57;18.50;99.90
9849;DHT22;4963;51.444;6.528;2023-09-30T12:41:24;18.50;99.90
9849;DHT22;4963;51.444;6.528;2023-09-30T12:43:51;18.50;99.90
9849;DHT22;4963;51.444;6.528;2023-09-30T12:46:18;18.60;99.90
9849;DHT22;4963;51.444;6.528;2023-09-30T12:48:46;18.60;99.90
9849;DHT22;4963;51.444;6.528;2023-09-30T12:51:14;18.60;99.90
9849;DHT22;4963;51.444;6.528;2023-09-30T12:53:40;18.60;99.90
9849;DHT22;4963;51.444;6.528;2023-09-30T12:56:09;18.70;99.90
9849;DHT22;4963;51.444;6.528;2023-09-30T12:58:36;18.80;99.90
9849;DHT22;4963;51.444;6.528;2023-09-30T13:01:04;18.80;99.90
9849;DHT22;4963;51.444;6.528;2023-09-30T13:03:31;18.80;99.90
9849;DHT22;4963;51.444;6.528;2023-09-30T13:05:58;18.90;99.90
9849;DHT22;4963;51.444;6.528;2023-09-30T13:08:25;18.80;99.90
9849;DHT22;4963;51.444;6.528;2023-09-30T13:10:52;18.80;99.90
9849;DHT22;4963;51.444;6.528;2023-09-30T13:13:20;18.90;99.90
9849;DHT22;4963;51.444;6.528;2023-09-30T13:15:47;18.80;99.90
9849;DHT22;4963;51.444;6.528;2023-09-30T13:18:14;18.80;99.90
9849;DHT22;4963;51.444;6.528;2023-09-30T13:20:43;18.90;99.90
9849;DHT22;4963;51.444;6.528;2023-09-30T13:23:10;18.90;99.90
9849;DHT22;4963;51.444;6.528;2023-09-30T13:25:37;18.90;99.90
9849;DHT22;4963;51.444;6.528;2023-09-30T13:28:03;19.00;99.90
9849;DHT22;4963;51.444;6.528;2023-09-30T13:30:32;18.90;99.90
9849;DHT22;4963;51.444;6.528;2023-09-30T13:32:59;18.90;99.90
9849;DHT22;4963;51.444;6.528;2023-09-30T13:35:26;18.90;99.90
9849;DHT22;4963;51.444;6.528;2023-09-30T13:37:52;18.80;99.90
9849;DHT22;4963;51.444;6.528;2023-09-30T13:40:19;18.80;99.90
9849;DHT22;4963;51.444;6.528;2023-09-30T13:42:46;18.80;99.90
9849;DHT22;4963;51.444;6.528;2023-09-30T13:45:13;18.90;99.90
9849;DHT22;4963;51.444;6.528;2023-09-30T13:47:44;18.90;99.90
9849;DHT22;4963;51.444;6.528;2023-09-30T13:50:11;18.80;99.90
9849;DHT22;4963;51.444;6.528;2023-09-30T13:52:38;18.80;99.90
9849;DHT22;4963;51.444;6.528;2023-09-30T13:55:05;18.70;99.90
9849;DHT22;4963;51.444;6.528;2023-09-30T13:57:32;18.70;99.90
9849;DHT22;4963;51.444;6.528;2023-09-30T13:59:59;18.70;99.90
9849;DHT22;4963;51.444;6.528;2023-09-30T14:02:26;18.70;99.90
9849;DHT22;4963;51.444;6.528;2023-09-30T14:04:54;18.70;99.90
9849;DHT22;4963;51.444;6.528;2023-09-30T14:07:21;18.70;99.90
9849;DHT22;4963;51.444;6.528;2023-09-30T14:09:57;18.70;99.90
9849;DHT22;4963;51.444;6.528;2023-09-30T14:12:25;18.70;99.90
9849;DHT22;4963;51.444;6.528;2023-09-30T14:14:53;18.70;99.90
9849;DHT22;4963;51.444;6.528;2023-09-30T14:17:20;18.70;99.90
9849;DHT22;4963;51.444;6.528;2023-09-30T14:19:47;18.70;99.90
9849;DHT22;4963;51.444;6.528;2023-09-30T14:22:15;18.70;99.90
9849;DHT22;4963;51.444;6.528;2023-09-30T14:24:43;18.70;99.90
9849;DHT22;4963;51.444;6.528;2023-09-30T14:27:12;18.70;99.90
9849;DHT22;4963;51.444;6.528;2023-09-30T14:29:39;18.60;99.90
9849;DHT22;4963;51.444;6.528;2023-09-30T14:32:06;18.60;99.90
9849;DHT22;4963;51.444;6.528;2023-09-30T14:34:33;18.60;99.90
9849;DHT22;4963;51.444;6.528;2023-09-30T14:37:00;18.60;99.90
9849;DHT22;4963;51.444;6.528;2023-09-30T14:39:28;18.60;99.90
9849;DHT22;4963;51.444;6.528;2023-09-30T14:41:55;18.60;99.90
9849;DHT22;4963;51.444;6.528;2023-09-30T14:44:24;18.60;99.90
9849;DHT22;4963;51.444;6.528;2023-09-30T14:46:51;18.60;99.90
9849;DHT22;4963;51.444;6.528;2023-09-30T14:49:18;18.60;99.90
9849;DHT22;4963;51.444;6.528;2023-09-30T14:51:45;18.50;99.90
9849;DHT22;4963;51.444;6.528;2023-09-30T14:54:13;18.50;99.90
9849;DHT22;4963;51.444;6.528;2023-09-30T14:56:40;18.50;99.90
9849;DHT22;4963;51.444;6.528;2023-09-30T14:59:07;18.50;99.90
9849;DHT22;4963;51.444;6.528;2023-09-30T15:01:35;18.50;99.90
9849;DHT22;4963;51.444;6.528;2023-09-30T15:04:04;18.50;99.90
9849;DHT22;4963;51.444;6.528;2023-09-30T15:06:32;18.50;99.90
9849;DHT22;4963;51.444;6.528;2023-09-30T15:09:00;18.50;99.90
9849;DHT22;4963;51.444;6.528;2023-09-30T15:11:25;18.50;99.90
9849;DHT22;4963;51.444;6.528;2023-09-30T15:13:52;18.50;99.90
9849;DHT22;4963;51.444;6.528;2023-09-30T15:16:21;18.50;99.90
9849;DHT22;4963;51.444;6.528;2023-09-30T15:18:50;18.40;99.90
9849;DHT22;4963;51.444;6.528;2023-09-30T15:21:17;18.40;99.90
9849;DHT22;4963;51.444;6.528;2023-09-30T15:23:45;18.40;99.90
9849;DHT22;4963;51.444;6.528;2023-09-30T15:26:11;18.40;99.90
9849;DHT22;4963;51.444;6.528;2023-09-30T15:28:38;18.40;99.90
9849;DHT22;4963;51.444;6.528;2023-09-30T15:31:05;18.30;99.90
9849;DHT22;4963;51.444;6.528;2023-09-30T15:33:33;18.40;99.90
9849;DHT22;4963;51.444;6.528;2023-09-30T15:36:08;18.40;99.90
9849;DHT22;4963;51.444;6.528;2023-09-30T15:38:36;18.30;99.90
9849;DHT22;4963;51.444;6.528;2023-09-30T15:41:03;18.30;99.90
9849;DHT22;4963;51.444;6.528;2023-09-30T15:43:30;18.30;99.90
9849;DHT22;4963;51.444;6.528;2023-09-30T15:45:58;18.30;99.90
9849;DHT22;4963;51.444;6.528;2023-09-30T15:48:25;18.30;99.90
9849;DHT22;4963;51.444;6.528;2023-09-30T15:50:52;18.30;99.90
9849;DHT22;4963;51.444;6.528;2023-09-30T15:53:21;18.30;99.90
9849;DHT22;4963;51.444;6.528;2023-09-30T15:55:48;18.30;99.90
9849;DHT22;4963;51.444;6.528;2023-09-30T15:58:16;18.30;99.90
9849;DHT22;4963;51.444;6.528;2023-09-30T16:00:43;18.30;99.90
9849;DHT22;4963;51.444;6.528;2023-09-30T16:03:10;18.20;99.90
9849;DHT22;4963;51.444;6.528;2023-09-30T16:05:38;18.20;99.90
9849;DHT22;4963;51.444;6.528;2023-09-30T16:08:06;18.10;99.90
9849;DHT22;4963;51.444;6.528;2023-09-30T16:10:36;18.10;99.90